Pine Bush, NY (12566)

11:00 AM EDT on September 16, 2019 (GMT -0400)
Hudson Valley, Shawagunk Mtns | | Change Station

Elev 607 ft 41.61 °N, 74.30 °W | Updated 10 seconds ago

Overcast
Overcast
64.9 °F
Feels Like 64.9 °F
N
3
Wind Variable Wind from ESE
Gusts 7.0 mph

Today
High -- | Low -- °F
--% Chance of Precip.
Yesterday
High -- | Low -- °F
Precip. -- in
Pressure 30.10 in
Visibility 10.0 miles
Clouds Few 1600 ft
Overcast 2300 ft
Dew Point 56 °F
Humidity 75%
Rainfall 0.00 in
Snow Depth Not available.
6:38 AM 7:05 PM
Waning Gibbous, 95% visible
METAR KMGJ 161454Z AUTO 05008KT 10SM FEW016 OVC023 18/14 A3010 RMK AO2 SLP191 60000 T01830144 51003
Pressure 30.10 in
Visibility 10.0 miles
Clouds Few 1600 ft
Overcast 2300 ft
Dew Point 56 °F
Humidity 75%
Rainfall 0.00 in
Snow Depth Not available.
6:38 AM 7:05 PM
Waning Gibbous, 95% visible
METAR KMGJ 161454Z AUTO 05008KT 10SM FEW016 OVC023 18/14 A3010 RMK AO2 SLP191 60000 T01830144 51003

Get Severe Weather Alerts

Thanks for signing up!

Be on the lookout for a verification email in your inbox.

You'll start receiving the daily forecast at 6 AM.

×

10-Day Weather Forecast

Almanac

Astronomy

Sep. 16, 2019 Rise Set
Actual Time
Civil Twilight
Nautical Twilight
Astronomical Twilight
Moon
Length of Visible Light
Length of Day
Tomorrow will be .
, % of the Moon is Illuminated

Today's Extremes

State Highs State Lows

Community

WunderPhotos

Category 6

Welcome to Category 6. This is the collective home for Weather Underground's featured writeups by Dr. Jeff Masters (right), Bob Henson (left), Chris Burt, and other regular contributors.

Nearby

Air Quality

  Air Quality AQ Index Pollutant
Not available.

Snow Depth

Station Depth Elevation

Earthquake Activity

City Distance Mag. Time & Date
Minimum magnitude displayed is 2.5.

Coastal Water Temperatures

Place Temperature

Stations

Nearby Weather Stations

Station Location Temp. Windchill Dew Point Humidity Wind Precip. Elev Updated Type
                   

Watches & Warnings

There are currently no watches in effect.